MSC Gina — 3FLY9 — position and weather

sailwx.info

Track history (hours):
 
Tides and Currents Weather Stations Pressure Air Temp Water Temp Dewpoint Dewpoint Depression Visibility Wind Speed Wind Dir Waves Ship Positions

MSC Gina

Last reported at 2017-Nov-18 04:53 UTC. Time now 2017-Nov-21 23:13 UTC.
Position N 35°51' E 032°37'.

Length 259 m; draft 10.6 m.

Type: Cargo ship. MMSI: 357542000.

Date/timePositionNaut miles runAvg speedWind from/ knotsBaromVisibWave heightAir tempDewpointWater temp
2017-Nov-18 04:53N 35°51' E 032°37'512.7
2017-Nov-18 04:28N 35°51' E 032°30'612.9
2017-Nov-18 04:00N 35°51' E 032°23'713.3
2017-Nov-18 03:30N 35°51' E 032°15'713.8
2017-Nov-18 03:00N 35°51' E 032°06'714.1
2017-Nov-18 02:30N 35°51' E 031°58'714.1
2017-Nov-18 02:01N 35°51' E 031°49'714.0
2017-Nov-18 01:30N 35°51' E 031°40'713.7
2017-Nov-18 01:00N 35°50' E 031°32'713.6
2017-Nov-18 00:30N 35°50' E 031°23'913.7
2017-Nov-17 23:52N 35°50' E 031°13'2013.8
2017-Nov-17 22:25N 35°50' E 030°48'35012.4
2017-Nov-16 18:14N 37°29' E 023°49'312.0
2017-Nov-16 18:00N 37°31' E 023°48'612.3
2017-Nov-16 17:31N 37°37' E 023°44'612.4
2017-Nov-16 17:01N 37°42' E 023°41'612.4
2017-Nov-16 16:30N 37°48' E 023°38'612.6
2017-Nov-16 16:01N 37°54' E 023°36'3 6.4
2017-Nov-16 15:30N 37°57' E 023°36'0 0.3
2017-Nov-16 15:00N 37°57' E 023°36'0 0.0
2017-Nov-16 14:30N 37°57' E 023°36'0 0.0
2017-Nov-16 14:00N 37°57' E 023°36'0 0.0
2017-Nov-16 13:30N 37°57' E 023°36'0 0.0
2017-Nov-16 13:00N 37°57' E 023°36'0 0.0
2017-Nov-16 12:30N 37°57' E 023°36'0 0.0
2017-Nov-16 12:00N 37°57' E 023°36'0 0.0
2017-Nov-16 11:30N 37°57' E 023°36'0 0.0
2017-Nov-16 11:00N 37°57' E 023°36'0 0.0
2017-Nov-16 10:27N 37°57' E 023°36'0 0.0
2017-Nov-16 10:00N 37°57' E 023°36'0 0.0
2017-Nov-16 09:30N 37°57' E 023°36'0 0.0
2017-Nov-16 09:00N 37°57' E 023°36'0 0.0
2017-Nov-16 08:30N 37°57' E 023°36'0 0.0
2017-Nov-16 08:00N 37°57' E 023°36'0 0.0
2017-Nov-16 07:30N 37°57' E 023°36'0 0.0
2017-Nov-16 07:00N 37°57' E 023°36'0 0.0
2017-Nov-16 06:30N 37°57' E 023°36'0 0.0
2017-Nov-16 06:00N 37°57' E 023°36'0 0.0
2017-Nov-16 05:30N 37°57' E 023°36'0 0.0
2017-Nov-16 05:00N 37°57' E 023°36'0 0.0
2017-Nov-16 04:30N 37°57' E 023°36'0 0.0
2017-Nov-16 04:00N 37°57' E 023°36'0 0.0
2017-Nov-16 03:30N 37°57' E 023°36'0 0.0
2017-Nov-16 03:00N 37°57' E 023°36'0 0.0
2017-Nov-16 02:30N 37°57' E 023°36'0 0.0
2017-Nov-16 02:00N 37°57' E 023°36'0 0.0
2017-Nov-16 01:30N 37°57' E 023°36'0 0.0
2017-Nov-16 01:00N 37°57' E 023°36'0 0.0
2017-Nov-16 00:30N 37°57' E 023°36'0 0.0
2017-Nov-16 00:00N 37°57' E 023°36'0 0.0
2017-Nov-15 23:30N 37°57' E 023°36'0 0.0
2017-Nov-15 23:00N 37°57' E 023°36'0 0.0
2017-Nov-15 22:30N 37°57' E 023°36'1 3.0
2017-Nov-15 22:00N 37°56' E 023°36'2 3.7
2017-Nov-15 21:31N 37°54' E 023°36'1 1.5
2017-Nov-15 21:01N 37°54' E 023°36'0 0.7
2017-Nov-15 20:31N 37°53' E 023°36'1 1.7
2017-Nov-15 20:01N 37°54' E 023°35'0 0.8
2017-Nov-15 19:31N 37°53' E 023°35'2 3.3
2017-Nov-15 19:01N 37°53' E 023°37'5 9.1
2017-Nov-15 18:30N 37°49' E 023°41'713.7
2017-Nov-15 18:00N 37°43' E 023°44'712.9
2017-Nov-15 17:30N 37°39' E 023°51'713.1
2017-Nov-15 16:59N 37°37' E 023°59'  
2017-Nov-10 19:12N 37°41' E 025°52'313.0
2017-Nov-10 19:00N 37°38' E 025°52'612.9
2017-Nov-10 18:30N 37°32' E 025°53'612.9
2017-Nov-10 18:00N 37°25' E 025°55'29411.3
2017-Nov-09 16:05N 35°50' E 031°41'112.5
2017-Nov-09 16:00N 35°50' E 031°43'6813.0
2017-Nov-09 10:46N 35°51' E 033°07'  
Track history (hours):
 
Tides and Currents Weather Stations Pressure Air Temp Water Temp Dewpoint Dewpoint Depression Visibility Wind Speed Wind Dir Waves Ship Positions

MSC Gina

Last reported at 2017-Nov-18 04:53 UTC. Time now 2017-Nov-21 23:13 UTC.
Position N 35°51' E 032°37'.

Length 259 m; draft 10.6 m.

Type: Cargo ship. MMSI: 357542000.

Date/timePositionNaut miles runAvg speedWind from/ knotsBaromVisibWave heightAir tempDewpointWater temp
2017-Nov-18 04:53N 35°51' E 032°37'512.7
2017-Nov-18 04:28N 35°51' E 032°30'612.9
2017-Nov-18 04:00N 35°51' E 032°23'713.3
2017-Nov-18 03:30N 35°51' E 032°15'713.8
2017-Nov-18 03:00N 35°51' E 032°06'714.1
2017-Nov-18 02:30N 35°51' E 031°58'714.1
2017-Nov-18 02:01N 35°51' E 031°49'714.0
2017-Nov-18 01:30N 35°51' E 031°40'713.7
2017-Nov-18 01:00N 35°50' E 031°32'713.6
2017-Nov-18 00:30N 35°50' E 031°23'913.7
2017-Nov-17 23:52N 35°50' E 031°13'2013.8
2017-Nov-17 22:25N 35°50' E 030°48'35012.4
2017-Nov-16 18:14N 37°29' E 023°49'312.0
2017-Nov-16 18:00N 37°31' E 023°48'612.3
2017-Nov-16 17:31N 37°37' E 023°44'612.4
2017-Nov-16 17:01N 37°42' E 023°41'612.4
2017-Nov-16 16:30N 37°48' E 023°38'612.6
2017-Nov-16 16:01N 37°54' E 023°36'3 6.4
2017-Nov-16 15:30N 37°57' E 023°36'0 0.3
2017-Nov-16 15:00N 37°57' E 023°36'0 0.0
2017-Nov-16 14:30N 37°57' E 023°36'0 0.0
2017-Nov-16 14:00N 37°57' E 023°36'0 0.0
2017-Nov-16 13:30N 37°57' E 023°36'0 0.0
2017-Nov-16 13:00N 37°57' E 023°36'0 0.0
2017-Nov-16 12:30N 37°57' E 023°36'0 0.0
2017-Nov-16 12:00N 37°57' E 023°36'0 0.0
2017-Nov-16 11:30N 37°57' E 023°36'0 0.0
2017-Nov-16 11:00N 37°57' E 023°36'0 0.0
2017-Nov-16 10:27N 37°57' E 023°36'0 0.0
2017-Nov-16 10:00N 37°57' E 023°36'0 0.0
2017-Nov-16 09:30N 37°57' E 023°36'0 0.0
2017-Nov-16 09:00N 37°57' E 023°36'0 0.0
2017-Nov-16 08:30N 37°57' E 023°36'0 0.0
2017-Nov-16 08:00N 37°57' E 023°36'0 0.0
2017-Nov-16 07:30N 37°57' E 023°36'0 0.0
2017-Nov-16 07:00N 37°57' E 023°36'0 0.0
2017-Nov-16 06:30N 37°57' E 023°36'0 0.0
2017-Nov-16 06:00N 37°57' E 023°36'0 0.0
2017-Nov-16 05:30N 37°57' E 023°36'0 0.0
2017-Nov-16 05:00N 37°57' E 023°36'0 0.0
2017-Nov-16 04:30N 37°57' E 023°36'0 0.0
2017-Nov-16 04:00N 37°57' E 023°36'0 0.0
2017-Nov-16 03:30N 37°57' E 023°36'0 0.0
2017-Nov-16 03:00N 37°57' E 023°36'0 0.0
2017-Nov-16 02:30N 37°57' E 023°36'0 0.0
2017-Nov-16 02:00N 37°57' E 023°36'0 0.0
2017-Nov-16 01:30N 37°57' E 023°36'0 0.0
2017-Nov-16 01:00N 37°57' E 023°36'0 0.0
2017-Nov-16 00:30N 37°57' E 023°36'0 0.0
2017-Nov-16 00:00N 37°57' E 023°36'0 0.0
2017-Nov-15 23:30N 37°57' E 023°36'0 0.0
2017-Nov-15 23:00N 37°57' E 023°36'0 0.0
2017-Nov-15 22:30N 37°57' E 023°36'1 3.0
2017-Nov-15 22:00N 37°56' E 023°36'2 3.7
2017-Nov-15 21:31N 37°54' E 023°36'1 1.5
2017-Nov-15 21:01N 37°54' E 023°36'0 0.7
2017-Nov-15 20:31N 37°53' E 023°36'1 1.7
2017-Nov-15 20:01N 37°54' E 023°35'0 0.8
2017-Nov-15 19:31N 37°53' E 023°35'2 3.3
2017-Nov-15 19:01N 37°53' E 023°37'5 9.1
2017-Nov-15 18:30N 37°49' E 023°41'713.7
2017-Nov-15 18:00N 37°43' E 023°44'712.9
2017-Nov-15 17:30N 37°39' E 023°51'713.1
2017-Nov-15 16:59N 37°37' E 023°59'  
2017-Nov-10 19:12N 37°41' E 025°52'313.0
2017-Nov-10 19:00N 37°38' E 025°52'612.9
2017-Nov-10 18:30N 37°32' E 025°53'612.9
2017-Nov-10 18:00N 37°25' E 025°55'29411.3
2017-Nov-09 16:05N 35°50' E 031°41'112.5
2017-Nov-09 16:00N 35°50' E 031°43'6813.0
2017-Nov-09 10:46N 35°51' E 033°07'  

Dump ship's entire track history